createdAt,value
2016-06-10T00:00:02.908Z,12.38
2016-06-10T00:00:12.927Z,12.49
2016-06-10T00:00:22.927Z,12.54
2016-06-10T00:00:32.942Z,12.39
2016-06-10T00:00:42.942Z,12.38
2016-06-10T00:00:52.942Z,12.46
2016-06-10T00:01:02.942Z,12.37
2016-06-10T00:01:12.961Z,12.52
2016-06-10T00:01:22.961Z,12.47
2016-06-10T00:01:32.961Z,12.45
2016-06-10T00:01:42.961Z,12.41
2016-06-10T00:01:52.977Z,12.38
2016-06-10T00:02:02.977Z,12.34
2016-06-10T00:02:12.980Z,12.37
2016-06-10T00:02:22.995Z,12.47
2016-06-10T00:02:32.995Z,12.39
2016-06-10T00:02:43.011Z,12.37
2016-06-10T00:02:52.995Z,12.37
2016-06-10T00:03:03.011Z,12.32
2016-06-10T00:03:13.014Z,12.34
2016-06-10T00:03:23.014Z,12.34
2016-06-10T00:03:33.029Z,12.35
2016-06-10T00:03:43.029Z,12.41
2016-06-10T00:03:53.045Z,12.45
2016-06-10T00:04:03.045Z,12.38
2016-06-10T00:04:13.048Z,12.38
2016-06-10T00:04:23.048Z,12.39
2016-06-10T00:04:33.064Z,12.38
2016-06-10T00:04:43.064Z,12.38
2016-06-10T00:04:53.064Z,12.35
2016-06-10T00:05:03.064Z,12.34
2016-06-10T00:05:13.083Z,12.32
2016-06-10T00:05:23.083Z,12.38
2016-06-10T00:05:33.083Z,12.34
2016-06-10T00:05:43.099Z,12.35
2016-06-10T00:05:53.099Z,12.29
2016-06-10T00:06:03.099Z,12.34
2016-06-10T00:06:13.117Z,12.37
2016-06-10T00:06:23.117Z,12.34
2016-06-10T00:06:33.117Z,12.32
2016-06-10T00:06:43.117Z,12.35
2016-06-10T00:06:53.132Z,12.34
2016-06-10T00:07:03.132Z,12.34
2016-06-10T00:07:13.136Z,12.35
2016-06-10T00:07:23.152Z,12.34
2016-06-10T00:07:33.167Z,12.34
2016-06-10T00:07:43.152Z,12.32
2016-06-10T00:07:53.167Z,12.31
2016-06-10T00:08:03.167Z,12.34
2016-06-10T00:08:13.170Z,12.21
2016-06-10T00:08:23.170Z,12.34
2016-06-10T00:08:33.186Z,12.34
2016-06-10T00:08:43.186Z,12.31
2016-06-10T00:08:53.186Z,12.35
2016-06-10T00:09:03.561Z,12.29
2016-06-10T00:09:13.970Z,12.2
2016-06-10T00:09:23.736Z,12.24
2016-06-10T00:09:33.673Z,12.24
2016-06-10T00:09:43.439Z,12.17
2016-06-10T00:09:53.595Z,12.29
2016-06-10T00:10:03.220Z,12.27
2016-06-10T00:10:13.286Z,12.23
2016-06-10T00:10:23.380Z,12.24
2016-06-10T00:10:33.239Z,12.2
2016-06-10T00:10:43.255Z,12.23
2016-06-10T00:10:53.286Z,12.29
2016-06-10T00:11:03.270Z,12.19
2016-06-10T00:11:13.273Z,12.28
2016-06-10T00:11:23.273Z,12.28
2016-06-10T00:11:33.117Z,12.27
2016-06-10T00:11:43.273Z,12.23
2016-06-10T00:11:53.289Z,12.23
2016-06-10T00:12:03.289Z,12.23
2016-06-10T00:12:13.292Z,12.28
2016-06-10T00:12:23.307Z,12.28
2016-06-10T00:12:33.307Z,12.23
2016-06-10T00:12:43.151Z,12.29
2016-06-10T00:12:53.479Z,12.2
2016-06-10T00:13:03.323Z,12.21
2016-06-10T00:13:13.326Z,12.2
2016-06-10T00:13:23.326Z,12.2
2016-06-10T00:13:33.342Z,12.27
2016-06-10T00:13:43.342Z,12.21
2016-06-10T00:13:53.342Z,12.2
2016-06-10T00:14:03.342Z,12.17
2016-06-10T00:14:13.360Z,12.2
2016-06-10T00:14:23.360Z,12.21
2016-06-10T00:14:33.360Z,12.27
2016-06-10T00:14:43.376Z,12.2
2016-06-10T00:14:53.376Z,12.16
2016-06-10T00:15:03.392Z,12.27
2016-06-10T00:15:13.379Z,12.14
2016-06-10T00:15:23.395Z,12.19
2016-06-10T00:15:33.395Z,12.17
2016-06-10T00:15:43.410Z,12.2
2016-06-10T00:15:53.410Z,12.17
2016-06-10T00:16:03.410Z,12.17
2016-06-10T00:16:13.429Z,12.23
2016-06-10T00:16:23.429Z,12.19
2016-06-10T00:16:33.429Z,12.17
2016-06-10T00:16:43.429Z,12.2
2016-06-10T00:16:53.444Z,12.16
2016-06-10T00:17:03.444Z,12.19
2016-06-10T00:17:13.448Z,12.19
2016-06-10T00:17:23.448Z,12.19
2016-06-10T00:17:33.464Z,12.19
2016-06-10T00:17:43.464Z,12.14
2016-06-10T00:17:53.480Z,12.13
2016-06-10T00:18:03.464Z,12.12
2016-06-10T00:18:13.483Z,12.16
2016-06-10T00:18:23.483Z,12.12
2016-06-10T00:18:33.483Z,12.13
2016-06-10T00:18:43.498Z,12.14
2016-06-10T00:18:53.498Z,12.12
2016-06-10T00:19:03.498Z,12.14
2016-06-10T00:19:13.594Z,12.13
2016-06-10T00:19:23.625Z,12.14
2016-06-10T00:19:33.516Z,12.1
2016-06-10T00:19:43.610Z,12.13
2016-06-10T00:19:53.532Z,12.19
2016-06-10T00:20:03.610Z,12.14
2016-06-10T00:20:13.613Z,12.14
2016-06-10T00:20:23.581Z,12.12
2016-06-10T00:20:33.675Z,12.14
2016-06-10T00:20:43.550Z,12.13
2016-06-10T00:20:53.566Z,12.13
2016-06-10T00:21:03.613Z,12.07
2016-06-10T00:21:13.664Z,12.05
2016-06-10T00:21:23.585Z,12.16
2016-06-10T00:21:33.585Z,12.13
2016-06-10T00:21:43.585Z,12.07
2016-06-10T00:21:53.679Z,12.02
2016-06-10T00:22:03.601Z,12.09
2016-06-10T00:22:22.463Z,12.02
2016-06-10T00:22:32.573Z,12.02
2016-06-10T00:22:42.573Z,12.07
2016-06-10T00:22:52.729Z,12.02
2016-06-10T00:23:02.917Z,12.02
2016-06-10T00:23:12.669Z,12.02
2016-06-10T00:23:22.684Z,12.01
2016-06-10T00:23:32.997Z,12.12
2016-06-10T00:23:42.606Z,12.02
2016-06-10T00:23:52.934Z,12.04
2016-06-10T00:24:02.794Z,12.01
2016-06-10T00:24:13.235Z,12.01
2016-06-10T00:24:22.751Z,12.01
2016-06-10T00:24:32.641Z,12.05
2016-06-10T00:24:42.798Z,12.04
2016-06-10T00:24:52.954Z,11.98
2016-06-10T00:25:02.673Z,11.98
2016-06-10T00:25:12.722Z,11.98
2016-06-10T00:25:22.785Z,11.99
2016-06-10T00:25:32.769Z,12.01
2016-06-10T00:25:42.738Z,11.95
2016-06-10T00:25:52.769Z,12.02
2016-06-10T00:26:02.769Z,11.99
2016-06-10T00:26:12.804Z,12.01
2016-06-10T00:26:22.741Z,11.99
2016-06-10T00:26:32.819Z,12.04
2016-06-10T00:26:42.757Z,11.96
2016-06-10T00:26:52.850Z,11.99
2016-06-10T00:27:02.757Z,11.96
2016-06-10T00:27:12.838Z,11.94
2016-06-10T00:27:22.885Z,12.01
2016-06-10T00:27:32.791Z,11.96
2016-06-10T00:27:42.807Z,11.96
2016-06-10T00:27:52.807Z,12.05
2016-06-10T00:28:02.838Z,11.91
2016-06-10T00:28:12.825Z,12.04
2016-06-10T00:28:22.825Z,12.04
2016-06-10T00:28:32.856Z,11.91
2016-06-10T00:28:42.872Z,11.96
2016-06-10T00:28:52.841Z,11.88
2016-06-10T00:29:02.716Z,11.99
2016-06-10T00:29:12.938Z,11.9
2016-06-10T00:29:22.797Z,11.91
2016-06-10T00:29:32.875Z,11.9
2016-06-10T00:29:42.844Z,11.95
2016-06-10T00:29:52.828Z,11.98
2016-06-10T00:30:02.891Z,11.94
2016-06-10T00:30:22.097Z,12.07
2016-06-10T00:30:32.003Z,11.94
2016-06-10T00:30:42.081Z,11.86
2016-06-10T00:30:52.050Z,11.9
2016-06-10T00:31:02.050Z,11.99
2016-06-10T00:31:12.053Z,11.94
2016-06-10T00:31:22.100Z,11.95
2016-06-10T00:31:31.928Z,11.88
2016-06-10T00:31:42.084Z,11.86
2016-06-10T00:31:52.022Z,11.9
2016-06-10T00:32:02.115Z,11.96
2016-06-10T00:32:12.118Z,11.9
2016-06-10T00:32:22.103Z,11.9
2016-06-10T00:32:32.134Z,11.9
2016-06-10T00:32:42.197Z,11.86
2016-06-10T00:32:52.072Z,11.99
2016-06-10T00:33:11.403Z,11.98
2016-06-10T00:33:21.262Z,11.96
2016-06-10T00:33:31.262Z,11.9
2016-06-10T00:33:50.371Z,11.9
2016-06-10T00:34:00.325Z,11.9
2016-06-10T00:34:10.371Z,11.9
2016-06-10T00:34:20.360Z,11.98
2016-06-10T00:34:30.391Z,11.95
2016-06-10T00:34:40.360Z,11.88
2016-06-10T00:34:50.297Z,11.91
2016-06-10T00:35:00.422Z,11.98
2016-06-10T00:35:10.391Z,11.9
2016-06-10T00:35:20.394Z,11.86
2016-06-10T00:35:30.378Z,11.88
2016-06-10T00:35:54.582Z,11.83
2016-06-10T00:35:58.597Z,11.91
2016-06-10T00:36:08.550Z,11.88
2016-06-10T00:36:18.569Z,11.85
2016-06-10T00:36:28.835Z,11.82
2016-06-10T00:36:38.678Z,11.95
2016-06-10T00:36:48.913Z,11.79
2016-06-10T00:36:58.647Z,11.82
2016-06-10T00:37:08.647Z,11.78
2016-06-10T00:37:18.728Z,11.85
2016-06-10T00:37:28.588Z,11.79
2016-06-10T00:37:38.666Z,11.88
2016-06-10T00:37:48.541Z,11.88
2016-06-10T00:37:58.697Z,11.88
2016-06-10T00:38:08.666Z,11.79
2016-06-10T00:38:18.684Z,11.86
2016-06-10T00:38:28.700Z,11.86
2016-06-10T00:38:38.669Z,11.79
2016-06-10T00:38:48.700Z,11.83
2016-06-10T00:38:58.669Z,11.91
2016-06-10T00:39:08.731Z,11.78
2016-06-10T00:39:18.672Z,11.82
2016-06-10T00:40:01.875Z,11.86
2016-06-10T00:40:12.300Z,11.83
2016-06-10T00:40:21.768Z,11.79
2016-06-10T00:40:31.878Z,11.83
2016-06-10T00:40:41.831Z,11.85
2016-06-10T00:40:51.862Z,11.83
2016-06-10T00:41:01.784Z,11.78
2016-06-10T00:41:11.787Z,11.79
2016-06-10T00:41:21.834Z,11.76
2016-06-10T00:41:31.818Z,11.8
2016-06-10T00:41:41.865Z,11.8
2016-06-10T00:41:51.834Z,11.79
2016-06-10T00:42:01.881Z,11.76
2016-06-10T00:42:11.868Z,11.75
2016-06-10T00:42:21.853Z,11.78
2016-06-10T00:42:31.821Z,11.83
2016-06-10T00:42:41.884Z,11.76
2016-06-10T00:42:52.087Z,11.73
2016-06-10T00:43:01.884Z,11.78
2016-06-10T00:43:12.091Z,11.73
2016-06-10T00:43:21.888Z,11.78
2016-06-10T00:43:31.872Z,11.75
2016-06-10T00:43:41.919Z,11.73
2016-06-10T00:43:51.841Z,11.75
2016-06-10T00:44:01.857Z,11.72
2016-06-10T00:44:11.859Z,11.7
2016-06-10T00:44:21.905Z,11.73
2016-06-10T00:44:31.968Z,11.69
2016-06-10T00:44:41.702Z,11.76
2016-06-10T00:44:51.905Z,11.72
2016-06-10T00:45:01.921Z,11.7
2016-06-10T00:45:11.924Z,11.73
2016-06-10T00:45:21.987Z,11.75
2016-06-10T00:45:31.971Z,11.73
2016-06-10T00:45:41.971Z,11.69
2016-06-10T00:45:52.018Z,11.75
2016-06-10T00:46:11.393Z,11.7
2016-06-10T00:46:21.381Z,11.73
2016-06-10T00:46:50.491Z,11.69
2016-06-10T00:47:00.491Z,11.79
2016-06-10T00:47:10.522Z,11.64
2016-06-10T00:47:20.509Z,11.67
2016-06-10T00:47:30.462Z,11.69
2016-06-10T00:47:40.478Z,11.67
2016-06-10T00:47:50.806Z,11.64
2016-06-10T00:48:00.494Z,11.61
2016-06-10T00:48:10.509Z,11.72
2016-06-10T00:48:20.559Z,11.67
2016-06-10T00:48:30.481Z,11.69
2016-06-10T00:48:41.215Z,11.67
2016-06-10T00:48:50.512Z,11.67
2016-06-10T00:49:00.762Z,11.64
2016-06-10T00:49:11.028Z,11.64
2016-06-10T00:49:20.530Z,11.69
2016-06-10T00:49:30.530Z,11.65
2016-06-10T00:49:40.624Z,11.65
2016-06-10T00:49:50.577Z,11.61
2016-06-10T00:50:00.420Z,11.61
2016-06-10T00:50:10.577Z,11.64
2016-06-10T00:50:20.628Z,11.62
2016-06-10T00:50:30.643Z,11.61
2016-06-10T00:50:40.534Z,11.57
2016-06-10T00:50:50.581Z,11.67
2016-06-10T00:51:00.878Z,11.55
2016-06-10T00:51:10.643Z,11.67
2016-06-10T00:51:20.552Z,11.58
2016-06-10T00:51:30.584Z,11.6
2016-06-10T00:51:40.599Z,11.54
2016-06-10T00:51:50.881Z,11.64
2016-06-10T00:52:01.084Z,11.67
2016-06-10T00:52:10.646Z,11.54
2016-06-10T00:52:20.618Z,11.61
2016-06-10T00:52:30.634Z,11.55
2016-06-10T00:52:40.649Z,11.58
2016-06-10T00:52:50.602Z,11.54
2016-06-10T00:53:00.837Z,11.52
2016-06-10T00:53:10.680Z,11.57
2016-06-10T00:53:20.730Z,11.57
2016-06-10T00:53:30.730Z,11.54
2016-06-10T00:53:40.730Z,11.52
2016-06-10T00:53:50.199Z,11.6
2016-06-10T00:54:00.793Z,11.52
2016-06-10T00:54:10.574Z,11.49
2016-06-10T00:54:20.890Z,11.6
2016-06-10T00:54:30.983Z,11.52
2016-06-10T00:54:40.640Z,11.52
2016-06-10T00:54:51.108Z,11.61
2016-06-10T00:55:00.968Z,11.55
2016-06-10T00:55:10.796Z,11.54
2016-06-10T00:55:20.799Z,11.49
2016-06-10T00:55:30.955Z,11.54
2016-06-10T00:55:40.768Z,11.54
2016-06-10T00:55:50.768Z,11.6
2016-06-10T00:56:00.783Z,11.49
2016-06-10T00:56:10.346Z,11.58
2016-06-10T00:56:20.755Z,11.55
2016-06-10T00:56:30.771Z,11.54
2016-06-10T00:56:40.786Z,11.57
2016-06-10T00:56:50.786Z,11.52
2016-06-10T00:57:00.724Z,11.51
2016-06-10T00:57:10.724Z,11.58
2016-06-10T00:57:20.820Z,11.52
2016-06-10T00:57:30.789Z,11.49
2016-06-10T00:57:40.789Z,11.51
2016-06-10T00:57:50.774Z,11.52
2016-06-10T00:58:00.836Z,11.6
2016-06-10T00:58:10.867Z,11.44
2016-06-10T00:58:20.761Z,11.57
2016-06-10T00:58:30.761Z,11.46
2016-06-10T00:58:40.792Z,11.51
2016-06-10T00:58:50.808Z,11.47
2016-06-10T00:59:00.808Z,11.52
2016-06-10T00:59:10.855Z,11.49
2016-06-10T00:59:20.827Z,11.52
2016-06-10T00:59:30.843Z,11.52
2016-06-10T00:59:40.796Z,11.49
2016-06-10T00:59:50.812Z,11.49
2016-06-10T01:00:00.827Z,11.46
2016-06-10T01:00:10.906Z,11.43
2016-06-10T01:00:20.893Z,11.47
2016-06-10T01:00:30.955Z,11.54
2016-06-10T01:00:40.830Z,11.44
2016-06-10T01:00:50.924Z,11.44
2016-06-10T01:01:00.940Z,11.47
2016-06-10T01:01:10.893Z,11.44
2016-06-10T01:01:20.943Z,11.46
2016-06-10T01:01:30.958Z,11.46
2016-06-10T01:01:40.943Z,11.47
2016-06-10T01:01:50.943Z,11.43
2016-06-10T01:02:00.849Z,11.44
2016-06-10T01:02:10.880Z,11.46
2016-06-10T01:02:20.805Z,11.43
2016-06-10T01:02:30.961Z,11.47
2016-06-10T01:02:40.961Z,11.42
2016-06-10T01:02:50.961Z,11.36
2016-06-10T01:03:01.196Z,11.43
2016-06-10T01:03:10.930Z,11.44
2016-06-10T01:03:20.949Z,11.43
2016-06-10T01:03:30.964Z,11.47
2016-06-10T01:03:41.011Z,11.42
2016-06-10T01:03:50.808Z,11.51
2016-06-10T01:04:00.964Z,11.36
2016-06-10T01:04:11.011Z,11.42
2016-06-10T01:04:20.999Z,11.42
2016-06-10T01:04:31.092Z,11.44
2016-06-10T01:04:41.014Z,11.42
2016-06-10T01:04:51.139Z,11.43
2016-06-10T01:05:01.014Z,11.36
2016-06-10T01:05:10.952Z,11.44
2016-06-10T01:05:21.064Z,11.39
2016-06-10T01:05:30.986Z,11.4
2016-06-10T01:05:41.064Z,11.42
2016-06-10T01:05:51.002Z,11.44
2016-06-10T01:06:01.049Z,11.43
2016-06-10T01:06:11.064Z,11.36
2016-06-10T01:06:21.067Z,11.37
2016-06-10T01:06:30.895Z,11.36
2016-06-10T01:06:41.083Z,11.42
2016-06-10T01:06:51.114Z,11.43
2016-06-10T01:07:01.067Z,11.42
2016-06-10T01:07:11.098Z,11.44
2016-06-10T01:07:21.367Z,11.32
2016-06-10T01:07:31.117Z,11.46
2016-06-10T01:07:41.039Z,11.37
2016-06-10T01:07:51.070Z,11.4
2016-06-10T01:08:01.086Z,11.42
2016-06-10T01:08:11.055Z,11.4
2016-06-10T01:08:21.136Z,11.32
2016-06-10T01:08:31.104Z,11.39
2016-06-10T01:08:41.198Z,11.32
2016-06-10T01:08:51.183Z,11.39
2016-06-10T01:09:01.136Z,11.29
2016-06-10T01:09:11.136Z,11.33
2016-06-10T01:09:20.982Z,11.35
2016-06-10T01:09:30.982Z,11.29
2016-06-10T01:09:41.014Z,11.29
2016-06-10T01:09:51.201Z,11.35
2016-06-10T01:10:00.998Z,11.32
2016-06-10T01:10:11.201Z,11.33
2016-06-10T01:10:21.486Z,11.33
2016-06-10T01:10:31.236Z,11.32
2016-06-10T01:10:41.190Z,11.35
2016-06-10T01:10:51.205Z,11.32
2016-06-10T01:11:01.221Z,11.32
2016-06-10T01:11:11.252Z,11.29
2016-06-10T01:11:21.052Z,11.35
2016-06-10T01:11:31.255Z,11.27
2016-06-10T01:11:41.177Z,11.28
2016-06-10T01:11:51.271Z,11.29
2016-06-10T01:12:01.177Z,11.33
2016-06-10T01:12:11.239Z,11.28
2016-06-10T01:12:21.258Z,11.28
2016-06-10T01:12:31.211Z,11.32
2016-06-10T01:12:41.289Z,11.28
2016-06-10T01:12:51.336Z,11.36
2016-06-10T01:13:01.180Z,11.35
2016-06-10T01:13:11.180Z,11.28
2016-06-10T01:13:21.183Z,11.29
2016-06-10T01:13:31.308Z,11.18
2016-06-10T01:13:41.277Z,11.33
2016-06-10T01:13:51.292Z,11.25
2016-06-10T01:14:01.261Z,11.25
2016-06-10T01:14:11.339Z,11.22
2016-06-10T01:14:21.217Z,11.25
2016-06-10T01:14:31.217Z,11.22
2016-06-10T01:14:41.217Z,11.19
2016-06-10T01:14:51.233Z,11.19
2016-06-10T01:15:01.233Z,11.22
2016-06-10T01:15:11.233Z,11.18
2016-06-10T01:15:21.236Z,11.22
2016-06-10T01:15:31.251Z,11.25
2016-06-10T01:15:41.267Z,11.17
2016-06-10T01:15:51.251Z,11.18
2016-06-10T01:16:01.267Z,11.27
2016-06-10T01:16:11.267Z,11.28
2016-06-10T01:16:21.270Z,11.27
2016-06-10T01:16:31.286Z,11.24
2016-06-10T01:16:41.286Z,11.17
2016-06-10T01:16:51.286Z,11.29
2016-06-10T01:17:01.286Z,11.22
2016-06-10T01:17:11.301Z,11.21
2016-06-10T01:17:21.148Z,11.15
2016-06-10T01:17:31.304Z,11.15
2016-06-10T01:17:41.320Z,11.18
2016-06-10T01:17:51.367Z,11.22
2016-06-10T01:18:01.461Z,11.21
2016-06-10T01:18:11.414Z,11.07
2016-06-10T01:18:21.401Z,11.19
2016-06-10T01:18:31.464Z,11.09
2016-06-10T01:18:41.401Z,11.17
2016-06-10T01:18:51.464Z,11.14
2016-06-10T01:19:01.432Z,11.15
2016-06-10T01:19:11.448Z,11.14
2016-06-10T01:19:21.388Z,11.1
2016-06-10T01:19:31.451Z,11.1
2016-06-10T01:19:41.482Z,11.07
2016-06-10T01:19:51.435Z,11.1
2016-06-10T01:20:01.482Z,11.17
2016-06-10T01:20:11.435Z,11.1
2016-06-10T01:20:21.502Z,11.07
2016-06-10T01:20:31.455Z,11.11
2016-06-10T01:20:41.502Z,11.17
2016-06-10T01:20:51.439Z,11.1
2016-06-10T01:21:01.486Z,11.09
2016-06-10T01:21:11.517Z,11.09
2016-06-10T01:21:21.535Z,11.07
2016-06-10T01:21:31.566Z,11.1
2016-06-10T01:21:41.535Z,11.1
2016-06-10T01:21:51.535Z,11.14
2016-06-10T01:22:01.582Z,11.1
2016-06-10T01:22:11.551Z,11.04
2016-06-10T01:22:21.569Z,11.11
2016-06-10T01:22:31.569Z,11.07
2016-06-10T01:22:41.569Z,11.09
2016-06-10T01:22:51.429Z,11.1
2016-06-10T01:23:01.522Z,11.04
2016-06-10T01:23:11.569Z,11.09
2016-06-10T01:23:21.588Z,11.04
2016-06-10T01:23:31.635Z,11.07
2016-06-10T01:23:41.588Z,11.09
2016-06-10T01:23:51.619Z,11.06
2016-06-10T01:24:01.604Z,11.07
2016-06-10T01:24:11.619Z,11.1
2016-06-10T01:24:21.639Z,11.06
2016-06-10T01:24:31.451Z,11
2016-06-10T01:24:41.639Z,11.06
2016-06-10T01:24:51.623Z,11.02
2016-06-10T01:25:01.623Z,11.06
2016-06-10T01:25:11.686Z,11.04
2016-06-10T01:25:22.094Z,11.07
2016-06-10T01:25:32.110Z,10.97
2016-06-10T01:25:42.375Z,10.97
2016-06-10T01:25:51.672Z,10.97
2016-06-10T01:26:01.656Z,11.03
2016-06-10T01:26:11.703Z,11.04
2016-06-10T01:26:21.660Z,11.04
2016-06-10T01:26:31.629Z,10.99
2016-06-10T01:26:41.707Z,11.02
2016-06-10T01:26:51.692Z,10.92
2016-06-10T01:27:01.739Z,10.96
2016-06-10T01:27:11.676Z,10.99
2016-06-10T01:27:21.647Z,11.03
2016-06-10T01:27:31.694Z,11
2016-06-10T01:27:41.647Z,11.06
2016-06-10T01:27:51.662Z,10.96
2016-06-10T01:28:01.741Z,11
2016-06-10T01:28:11.803Z,11.02
2016-06-10T01:28:21.698Z,10.97
2016-06-10T01:28:31.745Z,11.04
2016-06-10T01:28:41.682Z,11
2016-06-10T01:28:51.760Z,11
2016-06-10T01:29:01.729Z,11.03
2016-06-10T01:29:11.823Z,10.99
2016-06-10T01:29:21.762Z,10.94
2016-06-10T01:29:31.809Z,10.96
2016-06-10T01:29:41.700Z,10.92
2016-06-10T01:29:51.684Z,10.94
2016-06-10T01:30:01.684Z,10.99
2016-06-10T01:30:11.684Z,10.97
2016-06-10T01:30:21.704Z,10.92
2016-06-10T01:30:31.704Z,10.91
2016-06-10T01:30:41.704Z,10.92
2016-06-10T01:30:51.704Z,10.92
2016-06-10T01:31:01.719Z,10.92
2016-06-10T01:31:11.719Z,10.96
2016-06-10T01:31:21.721Z,10.96
2016-06-10T01:31:31.721Z,10.97
2016-06-10T01:31:41.737Z,10.94
2016-06-10T01:31:51.737Z,10.91
2016-06-10T01:32:01.737Z,10.94
2016-06-10T01:32:11.753Z,10.91
2016-06-10T01:32:21.757Z,10.94
2016-06-10T01:32:31.757Z,10.92
2016-06-10T01:32:41.757Z,10.88
2016-06-10T01:32:51.772Z,10.89
2016-06-10T01:33:01.772Z,10.92
2016-06-10T01:33:11.772Z,10.89
2016-06-10T01:33:21.775Z,10.96
2016-06-10T01:33:31.791Z,10.92
2016-06-10T01:33:41.791Z,10.88
2016-06-10T01:33:51.806Z,10.89
2016-06-10T01:34:01.869Z,10.89
2016-06-10T01:34:11.853Z,10.84
2016-06-10T01:34:21.919Z,10.96
2016-06-10T01:34:31.919Z,10.86
2016-06-10T01:34:41.950Z,10.91
2016-06-10T01:34:51.856Z,10.85
2016-06-10T01:35:01.950Z,10.82
2016-06-10T01:35:11.888Z,10.79
2016-06-10T01:35:21.953Z,10.84
2016-06-10T01:35:31.984Z,10.81
2016-06-10T01:35:41.984Z,10.85
2016-06-10T01:35:51.984Z,10.85
2016-06-10T01:36:01.969Z,10.89
2016-06-10T01:36:11.906Z,10.85
2016-06-10T01:36:21.941Z,10.79
2016-06-10T01:36:31.957Z,10.85
2016-06-10T01:36:41.941Z,10.84
2016-06-10T01:36:51.957Z,10.84
2016-06-10T01:37:01.988Z,10.85
2016-06-10T01:37:11.926Z,10.91
2016-06-10T01:37:22.053Z,10.84
2016-06-10T01:37:31.959Z,10.79
2016-06-10T01:37:41.990Z,10.85
2016-06-10T01:37:51.959Z,10.78
2016-06-10T01:38:01.990Z,10.74
2016-06-10T01:38:12.037Z,10.85
2016-06-10T01:38:22.025Z,10.81
2016-06-10T01:38:32.071Z,10.74
2016-06-10T01:38:41.993Z,10.78
2016-06-10T01:38:52.056Z,10.78
2016-06-10T01:39:02.087Z,10.79
2016-06-10T01:39:12.056Z,10.79
2016-06-10T01:39:22.091Z,10.84
2016-06-10T01:39:31.997Z,10.81
2016-06-10T01:39:42.154Z,10.82
2016-06-10T01:39:51.950Z,10.81
2016-06-10T01:40:02.107Z,10.78
2016-06-10T01:40:12.544Z,10.76
2016-06-10T01:40:21.985Z,10.76
2016-06-10T01:40:32.688Z,10.81
2016-06-10T01:40:42.344Z,10.73
2016-06-10T01:40:52.235Z,10.71
2016-06-10T01:41:02.141Z,10.81
2016-06-10T01:41:12.125Z,10.78
2016-06-10T01:41:22.159Z,10.76
2016-06-10T01:41:32.159Z,10.79
2016-06-10T01:41:42.174Z,10.76
2016-06-10T01:41:52.159Z,10.79
2016-06-10T01:42:02.143Z,10.74
2016-06-10T01:42:12.221Z,10.67
2016-06-10T01:42:22.194Z,10.79
2016-06-10T01:42:32.225Z,10.68
2016-06-10T01:42:42.209Z,10.68
2016-06-10T01:42:52.209Z,10.81
2016-06-10T01:43:02.241Z,10.73
2016-06-10T01:43:12.225Z,10.76
2016-06-10T01:43:22.212Z,10.79
2016-06-10T01:43:32.166Z,10.78
2016-06-10T01:43:42.181Z,10.66
2016-06-10T01:43:52.228Z,10.76
2016-06-10T01:44:02.212Z,10.68
2016-06-10T01:44:12.244Z,10.74
2016-06-10T01:44:22.215Z,10.64
2016-06-10T01:44:32.247Z,10.74
2016-06-10T01:44:42.294Z,10.66
2016-06-10T01:44:52.262Z,10.7
2016-06-10T01:45:02.215Z,10.7
2016-06-10T01:45:12.231Z,10.73
2016-06-10T01:45:22.265Z,10.67
2016-06-10T01:45:32.281Z,10.64
2016-06-10T01:45:42.281Z,10.68
2016-06-10T01:45:52.234Z,10.73
2016-06-10T01:46:02.250Z,10.74
2016-06-10T01:46:12.250Z,10.7
2016-06-10T01:46:22.253Z,10.71
2016-06-10T01:46:32.300Z,10.7
2016-06-10T01:46:42.331Z,10.61
2016-06-10T01:46:52.190Z,10.78
2016-06-10T01:47:02.190Z,10.68
2016-06-10T01:47:12.190Z,10.64
2016-06-10T01:47:22.209Z,10.71
2016-06-10T01:47:32.209Z,10.68
2016-06-10T01:47:42.209Z,10.66
2016-06-10T01:47:52.224Z,10.66
2016-06-10T01:48:02.224Z,10.6
2016-06-10T01:48:12.224Z,10.67
2016-06-10T01:48:22.227Z,10.7
2016-06-10T01:48:32.243Z,10.71
2016-06-10T01:48:42.243Z,10.66
2016-06-10T01:48:52.259Z,10.67
2016-06-10T01:49:02.259Z,10.7
2016-06-10T01:49:12.259Z,10.66
2016-06-10T01:49:22.262Z,10.68
2016-06-10T01:49:32.262Z,10.64
2016-06-10T01:49:42.277Z,10.56
2016-06-10T01:49:52.277Z,10.63
2016-06-10T01:50:02.277Z,10.61
2016-06-10T01:50:12.277Z,10.63
2016-06-10T01:50:22.296Z,10.67
2016-06-10T01:50:32.296Z,10.61
2016-06-10T01:50:42.296Z,10.61
2016-06-10T01:50:52.296Z,10.67
2016-06-10T01:51:02.312Z,10.61
2016-06-10T01:51:12.312Z,10.63
2016-06-10T01:51:22.331Z,10.6
2016-06-10T01:51:32.331Z,10.73
2016-06-10T01:51:42.331Z,10.68
2016-06-10T01:51:52.331Z,10.55
2016-06-10T01:52:02.347Z,10.67
2016-06-10T01:52:12.347Z,10.59
2016-06-10T01:52:22.350Z,10.68
2016-06-10T01:52:32.350Z,10.63
2016-06-10T01:52:42.365Z,10.56
2016-06-10T01:52:52.365Z,10.68
2016-06-10T01:53:02.365Z,10.68
2016-06-10T01:53:12.365Z,10.7
2016-06-10T01:53:22.383Z,10.61
2016-06-10T01:53:32.383Z,10.6
2016-06-10T01:53:42.383Z,10.68
2016-06-10T01:53:52.399Z,10.63
2016-06-10T01:54:02.399Z,10.59
2016-06-10T01:54:12.414Z,10.59
2016-06-10T01:54:22.418Z,10.68
2016-06-10T01:54:32.418Z,10.66
2016-06-10T01:54:42.418Z,10.6
2016-06-10T01:54:52.418Z,10.56
2016-06-10T01:55:02.496Z,10.66
2016-06-10T01:55:12.918Z,10.6
2016-06-10T01:55:23.078Z,10.63
2016-06-10T01:55:32.718Z,10.56
2016-06-10T01:55:42.453Z,10.61
2016-06-10T01:55:52.296Z,10.64
2016-06-10T01:56:02.453Z,10.64
2016-06-10T01:56:12.468Z,10.67
2016-06-10T01:56:22.470Z,10.6
2016-06-10T01:56:32.470Z,10.67
2016-06-10T01:56:42.470Z,10.6
2016-06-10T01:56:52.486Z,10.66
2016-06-10T01:57:02.486Z,10.56
2016-06-10T01:57:12.486Z,10.6
2016-06-10T01:57:22.505Z,10.64
2016-06-10T01:57:32.349Z,10.66
2016-06-10T01:57:42.537Z,10.63
2016-06-10T01:57:52.521Z,10.64
2016-06-10T01:58:02.521Z,10.59
2016-06-10T01:58:12.521Z,10.61
2016-06-10T01:58:22.524Z,10.66
2016-06-10T01:58:32.540Z,10.59
2016-06-10T01:58:42.540Z,10.56
2016-06-10T01:58:52.540Z,10.71
2016-06-10T01:59:02.555Z,10.59
2016-06-10T01:59:12.555Z,10.64
2016-06-10T01:59:22.558Z,10.6
2016-06-10T01:59:32.558Z,10.55
2016-06-10T01:59:42.574Z,10.67
2016-06-10T01:59:52.574Z,10.66
2016-06-10T02:00:02.574Z,10.61
2016-06-10T02:00:12.433Z,10.64
2016-06-10T02:00:22.593Z,10.59
2016-06-10T02:00:32.593Z,10.71
2016-06-10T02:00:42.593Z,10.7
2016-06-10T02:00:52.608Z,10.61
2016-06-10T02:01:02.608Z,10.63
2016-06-10T02:01:12.608Z,10.68
2016-06-10T02:01:22.627Z,10.64
2016-06-10T02:01:32.627Z,10.68
2016-06-10T02:01:42.627Z,10.73
2016-06-10T02:01:52.642Z,10.68
2016-06-10T02:02:02.642Z,10.7
2016-06-10T02:02:12.674Z,10.61
2016-06-10T02:02:22.645Z,10.63
2016-06-10T02:02:32.645Z,10.61
2016-06-10T02:02:42.661Z,10.66
2016-06-10T02:02:52.661Z,10.66
2016-06-10T02:03:02.661Z,10.64
2016-06-10T02:03:12.677Z,10.66
2016-06-10T02:03:22.680Z,10.61
2016-06-10T02:03:32.680Z,10.73
2016-06-10T02:03:42.695Z,10.68
2016-06-10T02:03:52.695Z,10.61
2016-06-10T02:04:02.711Z,10.63
2016-06-10T02:04:12.711Z,10.67
2016-06-10T02:04:22.698Z,10.71
2016-06-10T02:04:32.714Z,10.61
2016-06-10T02:04:42.714Z,10.59
2016-06-10T02:04:52.730Z,10.6
2016-06-10T02:05:02.730Z,10.7
2016-06-10T02:05:12.730Z,10.63
2016-06-10T02:05:22.734Z,10.67
2016-06-10T02:05:32.734Z,10.67
2016-06-10T02:05:42.749Z,10.7
2016-06-10T02:05:52.749Z,10.63
2016-06-10T02:06:02.765Z,10.63
2016-06-10T02:06:12.765Z,10.61
2016-06-10T02:06:22.767Z,10.56
2016-06-10T02:06:32.767Z,10.64
2016-06-10T02:06:42.782Z,10.68
2016-06-10T02:06:52.782Z,10.64
2016-06-10T02:07:02.782Z,10.68
2016-06-10T02:07:12.782Z,10.61
2016-06-10T02:07:22.802Z,10.63
2016-06-10T02:07:32.802Z,10.68
2016-06-10T02:07:42.802Z,10.6
2016-06-10T02:07:52.818Z,10.67
2016-06-10T02:08:02.818Z,10.73
2016-06-10T02:08:12.818Z,10.68
2016-06-10T02:08:22.821Z,10.66
2016-06-10T02:08:32.836Z,10.67
2016-06-10T02:08:42.836Z,10.6
2016-06-10T02:08:52.836Z,10.61
2016-06-10T02:09:02.852Z,10.6
2016-06-10T02:09:12.852Z,10.61
2016-06-10T02:09:22.854Z,10.67
2016-06-10T02:09:32.854Z,10.71
2016-06-10T02:09:42.870Z,10.59
2016-06-10T02:09:52.870Z,10.61
2016-06-10T02:10:04.104Z,10.64
2016-06-10T02:10:13.245Z,10.6
2016-06-10T02:10:22.889Z,10.67
2016-06-10T02:10:32.889Z,10.56
2016-06-10T02:10:42.889Z,10.59
2016-06-10T02:10:53.405Z,10.6
2016-06-10T02:11:03.389Z,10.59